sensor_id;sensor_type;location;lat;lon;timestamp;pressure;altitude;pressure_sealevel;temperature;humidity
23899;BME280;20544;50.018;20.010;2023-08-12T00:01:32;99413.89;;;15.66;100.00
23899;BME280;20544;50.018;20.010;2023-08-12T00:04:49;99404.20;;;15.58;100.00
23899;BME280;20544;50.018;20.010;2023-08-12T00:08:06;99408.69;;;15.51;100.00
23899;BME280;20544;50.018;20.010;2023-08-12T00:11:23;99398.58;;;15.46;100.00
23899;BME280;20544;50.018;20.010;2023-08-12T00:14:39;99398.99;;;15.43;100.00
23899;BME280;20544;50.018;20.010;2023-08-12T00:17:56;99396.09;;;15.38;100.00
23899;BME280;20544;50.018;20.010;2023-08-12T00:21:15;99391.74;;;15.30;100.00
23899;BME280;20544;50.018;20.010;2023-08-12T00:24:31;99395.20;;;15.24;100.00
23899;BME280;20544;50.018;20.010;2023-08-12T00:27:48;99391.67;;;15.17;100.00
23899;BME280;20544;50.018;20.010;2023-08-12T00:31:05;99383.59;;;15.10;100.00
23899;BME280;20544;50.018;20.010;2023-08-12T00:34:22;99382.75;;;15.03;100.00
23899;BME280;20544;50.018;20.010;2023-08-12T00:37:38;99380.87;;;14.97;100.00
23899;BME280;20544;50.018;20.010;2023-08-12T00:40:55;99380.80;;;14.90;100.00
23899;BME280;20544;50.018;20.010;2023-08-12T00:44:12;99379.12;;;14.82;100.00
23899;BME280;20544;50.018;20.010;2023-08-12T00:47:29;99378.23;;;14.75;100.00
23899;BME280;20544;50.018;20.010;2023-08-12T00:50:49;99375.53;;;14.68;100.00
23899;BME280;20544;50.018;20.010;2023-08-12T00:54:06;99375.53;;;14.68;100.00
23899;BME280;20544;50.018;20.010;2023-08-12T00:57:29;99378.41;;;14.67;100.00
23899;BME280;20544;50.018;20.010;2023-08-12T01:00:45;99373.41;;;14.64;100.00
23899;BME280;20544;50.018;20.010;2023-08-12T01:04:02;99374.62;;;14.61;100.00
23899;BME280;20544;50.018;20.010;2023-08-12T01:07:20;99365.16;;;14.59;100.00
23899;BME280;20544;50.018;20.010;2023-08-12T01:10:37;99368.40;;;14.54;100.00
23899;BME280;20544;50.018;20.010;2023-08-12T01:14:00;99364.88;;;14.47;100.00
23899;BME280;20544;50.018;20.010;2023-08-12T01:17:21;99363.02;;;14.47;100.00
23899;BME280;20544;50.018;20.010;2023-08-12T01:20:39;99356.42;;;14.43;100.00
23899;BME280;20544;50.018;20.010;2023-08-12T01:23:56;99366.66;;;14.39;100.00
23899;BME280;20544;50.018;20.010;2023-08-12T01:27:14;99368.04;;;14.35;100.00
23899;BME280;20544;50.018;20.010;2023-08-12T01:30:31;99370.91;;;14.34;100.00
23899;BME280;20544;50.018;20.010;2023-08-12T01:33:54;99359.79;;;14.30;100.00
23899;BME280;20544;50.018;20.010;2023-08-12T01:37:17;99363.22;;;14.24;100.00
23899;BME280;20544;50.018;20.010;2023-08-12T01:40:35;99367.30;;;14.20;100.00
23899;BME280;20544;50.018;20.010;2023-08-12T01:43:53;99362.97;;;14.19;100.00
23899;BME280;20544;50.018;20.010;2023-08-12T01:47:11;99367.30;;;14.20;100.00
23899;BME280;20544;50.018;20.010;2023-08-12T01:50:27;99360.70;;;14.16;100.00
23899;BME280;20544;50.018;20.010;2023-08-12T01:53:44;99367.61;;;14.10;100.00
23899;BME280;20544;50.018;20.010;2023-08-12T01:57:01;99374.97;;;14.08;100.00
23899;BME280;20544;50.018;20.010;2023-08-12T02:00:19;99364.70;;;14.05;100.00
23899;BME280;20544;50.018;20.010;2023-08-12T02:03:36;99371.88;;;14.04;100.00
23899;BME280;20544;50.018;20.010;2023-08-12T02:06:53;99358.10;;;14.01;100.00
23899;BME280;20544;50.018;20.010;2023-08-12T02:10:11;99368.94;;;13.99;100.00
23899;BME280;20544;50.018;20.010;2023-08-12T02:13:28;99374.66;;;13.96;100.00
23899;BME280;20544;50.018;20.010;2023-08-12T02:16:45;99379.35;;;13.94;100.00
23899;BME280;20544;50.018;20.010;2023-08-12T02:20:02;99381.20;;;13.94;100.00
23899;BME280;20544;50.018;20.010;2023-08-12T02:23:22;99372.11;;;13.88;100.00
23899;BME280;20544;50.018;20.010;2023-08-12T02:26:39;99369.38;;;13.81;100.00
23899;BME280;20544;50.018;20.010;2023-08-12T02:29:56;99382.91;;;13.80;100.00
23899;BME280;20544;50.018;20.010;2023-08-12T02:33:15;99382.45;;;13.76;100.00
23899;BME280;20544;50.018;20.010;2023-08-12T02:36:32;99386.13;;;13.75;100.00
23899;BME280;20544;50.018;20.010;2023-08-12T02:39:48;99382.81;;;13.73;100.00
23899;BME280;20544;50.018;20.010;2023-08-12T02:43:05;99388.80;;;13.75;100.00
23899;BME280;20544;50.018;20.010;2023-08-12T02:46:22;99392.86;;;13.71;100.00
23899;BME280;20544;50.018;20.010;2023-08-12T02:49:39;99397.99;;;13.72;100.00
23899;BME280;20544;50.018;20.010;2023-08-12T02:52:57;99396.53;;;13.70;100.00
23899;BME280;20544;50.018;20.010;2023-08-12T02:56:14;99393.41;;;13.66;100.00
23899;BME280;20544;50.018;20.010;2023-08-12T02:59:30;99401.77;;;13.63;100.00
23899;BME280;20544;50.018;20.010;2023-08-12T03:02:47;99395.36;;;13.57;100.00
23899;BME280;20544;50.018;20.010;2023-08-12T03:06:04;99401.89;;;13.55;100.00
23899;BME280;20544;50.018;20.010;2023-08-12T03:09:21;99405.56;;;13.54;100.00
23899;BME280;20544;50.018;20.010;2023-08-12T03:12:38;99393.44;;;13.51;100.00
23899;BME280;20544;50.018;20.010;2023-08-12T03:15:56;99397.11;;;13.50;100.00
23899;BME280;20544;50.018;20.010;2023-08-12T03:19:13;99408.16;;;13.47;100.00
23899;BME280;20544;50.018;20.010;2023-08-12T03:22:30;99406.69;;;13.45;100.00
23899;BME280;20544;50.018;20.010;2023-08-12T03:25:50;99406.58;;;13.38;100.00
23899;BME280;20544;50.018;20.010;2023-08-12T03:29:07;99408.13;;;13.32;100.00
23899;BME280;20544;50.018;20.010;2023-08-12T03:32:23;99410.95;;;13.31;100.00
23899;BME280;20544;50.018;20.010;2023-08-12T03:35:40;99411.88;;;13.23;100.00
23899;BME280;20544;50.018;20.010;2023-08-12T03:39:00;99418.87;;;13.24;100.00
23899;BME280;20544;50.018;20.010;2023-08-12T03:42:18;99415.82;;;13.27;100.00
23899;BME280;20544;50.018;20.010;2023-08-12T03:45:38;99418.48;;;13.27;100.00
23899;BME280;20544;50.018;20.010;2023-08-12T03:48:56;99418.33;;;13.29;100.00
23899;BME280;20544;50.018;20.010;2023-08-12T03:52:20;99415.66;;;13.29;100.00
23899;BME280;20544;50.018;20.010;2023-08-12T03:55:37;99413.34;;;13.25;100.00
23899;BME280;20544;50.018;20.010;2023-08-12T03:58:56;99410.49;;;13.27;100.00
23899;BME280;20544;50.018;20.010;2023-08-12T04:02:13;99411.25;;;13.36;100.00
23899;BME280;20544;50.018;20.010;2023-08-12T04:05:30;99406.03;;;13.42;100.00
23899;BME280;20544;50.018;20.010;2023-08-12T04:08:47;99402.24;;;13.52;100.00
23899;BME280;20544;50.018;20.010;2023-08-12T04:12:12;99404.63;;;13.62;100.00
23899;BME280;20544;50.018;20.010;2023-08-12T04:15:29;99402.67;;;13.70;100.00
23899;BME280;20544;50.018;20.010;2023-08-12T04:18:46;99402.38;;;13.80;100.00
23899;BME280;20544;50.018;20.010;2023-08-12T04:22:02;99400.17;;;13.84;100.00
23899;BME280;20544;50.018;20.010;2023-08-12T04:25:20;99403.94;;;13.89;100.00
23899;BME280;20544;50.018;20.010;2023-08-12T04:28:37;99408.88;;;13.93;100.00
23899;BME280;20544;50.018;20.010;2023-08-12T04:31:54;99400.94;;;13.99;100.00
23899;BME280;20544;50.018;20.010;2023-08-12T04:35:12;99400.77;;;14.01;100.00
23899;BME280;20544;50.018;20.010;2023-08-12T04:38:29;99403.69;;;14.06;100.00
23899;BME280;20544;50.018;20.010;2023-08-12T04:41:48;99403.13;;;14.11;100.00
23899;BME280;20544;50.018;20.010;2023-08-12T04:45:06;99404.20;;;14.16;100.00
23899;BME280;20544;50.018;20.010;2023-08-12T04:48:27;99408.58;;;14.24;100.00
23899;BME280;20544;50.018;20.010;2023-08-12T04:51:44;99415.82;;;14.30;100.00
23899;BME280;20544;50.018;20.010;2023-08-12T04:55:01;99417.53;;;14.38;100.00
23899;BME280;20544;50.018;20.010;2023-08-12T04:58:21;99415.38;;;14.48;100.00
23899;BME280;20544;50.018;20.010;2023-08-12T05:01:38;99419.75;;;14.56;100.00
23899;BME280;20544;50.018;20.010;2023-08-12T05:04:56;99429.13;;;14.67;100.00
23899;BME280;20544;50.018;20.010;2023-08-12T05:08:15;99422.61;;;14.76;100.00
23899;BME280;20544;50.018;20.010;2023-08-12T05:11:32;99436.64;;;14.85;100.00
23899;BME280;20544;50.018;20.010;2023-08-12T05:14:49;99433.44;;;14.96;100.00
23899;BME280;20544;50.018;20.010;2023-08-12T05:18:08;99433.74;;;15.08;100.00
23899;BME280;20544;50.018;20.010;2023-08-12T05:21:24;99434.64;;;15.22;100.00
23899;BME280;20544;50.018;20.010;2023-08-12T05:24:41;99434.09;;;15.33;100.00
23899;BME280;20544;50.018;20.010;2023-08-12T05:27:58;99431.88;;;15.44;100.00
23899;BME280;20544;50.018;20.010;2023-08-12T05:31:14;99426.40;;;15.59;100.00
23899;BME280;20544;50.018;20.010;2023-08-12T05:34:31;99430.20;;;15.78;100.00
23899;BME280;20544;50.018;20.010;2023-08-12T05:37:48;99429.27;;;15.99;100.00
23899;BME280;20544;50.018;20.010;2023-08-12T05:41:05;99435.69;;;16.18;100.00
23899;BME280;20544;50.018;20.010;2023-08-12T05:44:21;99422.97;;;16.40;100.00
23899;BME280;20544;50.018;20.010;2023-08-12T05:47:38;99412.06;;;16.55;100.00
23899;BME280;20544;50.018;20.010;2023-08-12T05:50:55;99422.56;;;16.70;100.00
23899;BME280;20544;50.018;20.010;2023-08-12T05:54:12;99419.88;;;16.90;100.00
23899;BME280;20544;50.018;20.010;2023-08-12T05:57:32;99416.57;;;17.15;100.00
23899;BME280;20544;50.018;20.010;2023-08-12T06:00:48;99421.88;;;17.35;100.00
23899;BME280;20544;50.018;20.010;2023-08-12T06:04:07;99423.45;;;17.56;100.00
23899;BME280;20544;50.018;20.010;2023-08-12T06:07:25;99416.80;;;17.72;100.00
23899;BME280;20544;50.018;20.010;2023-08-12T06:10:42;99430.34;;;17.91;100.00
23899;BME280;20544;50.018;20.010;2023-08-12T06:13:58;99430.25;;;18.11;100.00
23899;BME280;20544;50.018;20.010;2023-08-12T06:17:18;99425.40;;;18.26;100.00
23899;BME280;20544;50.018;20.010;2023-08-12T06:20:35;99429.11;;;18.57;100.00
23899;BME280;20544;50.018;20.010;2023-08-12T06:23:54;99428.52;;;18.81;100.00
23899;BME280;20544;50.018;20.010;2023-08-12T06:27:11;99428.36;;;19.01;100.00
23899;BME280;20544;50.018;20.010;2023-08-12T06:30:29;99433.61;;;19.14;100.00
23899;BME280;20544;50.018;20.010;2023-08-12T06:33:46;99436.38;;;19.26;100.00
23899;BME280;20544;50.018;20.010;2023-08-12T06:37:03;99433.55;;;19.39;100.00
23899;BME280;20544;50.018;20.010;2023-08-12T06:40:20;99437.73;;;19.54;100.00
23899;BME280;20544;50.018;20.010;2023-08-12T06:43:38;99436.75;;;19.67;100.00
23899;BME280;20544;50.018;20.010;2023-08-12T06:46:59;99430.97;;;19.82;100.00
23899;BME280;20544;50.018;20.010;2023-08-12T06:54:04;99435.59;;;20.24;100.00
23899;BME280;20544;50.018;20.010;2023-08-12T06:57:39;99444.45;;;20.43;100.00
23899;BME280;20544;50.018;20.010;2023-08-12T07:01:02;99430.42;;;20.52;100.00
23899;BME280;20544;50.018;20.010;2023-08-12T07:04:31;99432.88;;;20.54;100.00
23899;BME280;20544;50.018;20.010;2023-08-12T07:07:49;99440.97;;;20.66;100.00
23899;BME280;20544;50.018;20.010;2023-08-12T07:11:16;99431.66;;;20.80;100.00
23899;BME280;20544;50.018;20.010;2023-08-12T07:14:42;99437.75;;;21.11;100.00
23899;BME280;20544;50.018;20.010;2023-08-12T07:18:10;99440.07;;;21.43;100.00
23899;BME280;20544;50.018;20.010;2023-08-12T07:21:42;99447.66;;;21.70;100.00
23899;BME280;20544;50.018;20.010;2023-08-12T07:25:14;99442.17;;;21.94;100.00
23899;BME280;20544;50.018;20.010;2023-08-12T07:28:42;99441.12;;;21.95;100.00
23899;BME280;20544;50.018;20.010;2023-08-12T07:32:02;99430.25;;;22.07;100.00
23899;BME280;20544;50.018;20.010;2023-08-12T07:35:34;99438.39;;;22.24;100.00
23899;BME280;20544;50.018;20.010;2023-08-12T07:38:55;99442.41;;;22.67;100.00
23899;BME280;20544;50.018;20.010;2023-08-12T07:42:19;99445.12;;;22.84;100.00
23899;BME280;20544;50.018;20.010;2023-08-12T07:45:38;99446.80;;;23.07;100.00
23899;BME280;20544;50.018;20.010;2023-08-12T07:49:02;99443.80;;;23.43;100.00
23899;BME280;20544;50.018;20.010;2023-08-12T07:52:20;99450.52;;;23.63;100.00
23899;BME280;20544;50.018;20.010;2023-08-12T07:55:39;99449.52;;;23.69;100.00
23899;BME280;20544;50.018;20.010;2023-08-12T07:58:57;99439.14;;;23.83;100.00
23899;BME280;20544;50.018;20.010;2023-08-12T08:02:22;99442.18;;;24.14;100.00
23899;BME280;20544;50.018;20.010;2023-08-12T08:05:43;99443.00;;;24.42;100.00
23899;BME280;20544;50.018;20.010;2023-08-12T08:09:00;99429.37;;;24.31;100.00
23899;BME280;20544;50.018;20.010;2023-08-12T08:12:17;99441.52;;;24.89;100.00
23899;BME280;20544;50.018;20.010;2023-08-12T08:15:33;99440.01;;;25.56;100.00
23899;BME280;20544;50.018;20.010;2023-08-12T08:18:50;99437.75;;;26.16;100.00
23899;BME280;20544;50.018;20.010;2023-08-12T08:22:07;99441.88;;;26.71;100.00
23899;BME280;20544;50.018;20.010;2023-08-12T08:25:23;99448.63;;;27.15;100.00
23899;BME280;20544;50.018;20.010;2023-08-12T08:28:40;99453.00;;;27.91;100.00
23899;BME280;20544;50.018;20.010;2023-08-12T08:31:58;99452.44;;;28.39;100.00
23899;BME280;20544;50.018;20.010;2023-08-12T08:35:18;99452.44;;;29.03;100.00
23899;BME280;20544;50.018;20.010;2023-08-12T08:38:38;99455.17;;;29.33;100.00
23899;BME280;20544;50.018;20.010;2023-08-12T08:41:56;99454.17;;;29.48;100.00
23899;BME280;20544;50.018;20.010;2023-08-12T08:45:15;99447.17;;;30.04;100.00
23899;BME280;20544;50.018;20.010;2023-08-12T08:48:32;99449.66;;;30.58;100.00
23899;BME280;20544;50.018;20.010;2023-08-12T08:51:51;99458.17;;;30.56;96.41
23899;BME280;20544;50.018;20.010;2023-08-12T08:55:09;99448.48;;;29.44;97.58
23899;BME280;20544;50.018;20.010;2023-08-12T08:58:28;99446.80;;;29.92;100.00
23899;BME280;20544;50.018;20.010;2023-08-12T09:01:45;99443.50;;;30.66;99.77
23899;BME280;20544;50.018;20.010;2023-08-12T09:05:06;99442.86;;;31.02;97.71
23899;BME280;20544;50.018;20.010;2023-08-12T09:08:26;99450.72;;;31.65;96.63
23899;BME280;20544;50.018;20.010;2023-08-12T09:11:45;99439.84;;;31.59;96.72
23899;BME280;20544;50.018;20.010;2023-08-12T09:15:02;99441.77;;;31.45;96.32
23899;BME280;20544;50.018;20.010;2023-08-12T09:18:20;99433.47;;;31.22;96.55
23899;BME280;20544;50.018;20.010;2023-08-12T09:21:37;99431.22;;;31.52;96.91
23899;BME280;20544;50.018;20.010;2023-08-12T09:24:57;99440.92;;;31.86;95.15
23899;BME280;20544;50.018;20.010;2023-08-12T09:28:16;99436.66;;;31.94;96.16
23899;BME280;20544;50.018;20.010;2023-08-12T09:31:34;99429.31;;;32.03;96.53
23899;BME280;20544;50.018;20.010;2023-08-12T09:34:53;99428.48;;;31.66;96.02
23899;BME280;20544;50.018;20.010;2023-08-12T09:38:13;99428.30;;;31.35;97.00
23899;BME280;20544;50.018;20.010;2023-08-12T09:41:31;99424.14;;;31.23;97.58
23899;BME280;20544;50.018;20.010;2023-08-12T09:44:48;99422.59;;;31.45;98.33
23899;BME280;20544;50.018;20.010;2023-08-12T09:48:06;99416.72;;;31.24;96.83
23899;BME280;20544;50.018;20.010;2023-08-12T09:51:25;99415.36;;;30.79;97.95
23899;BME280;20544;50.018;20.010;2023-08-12T09:54:43;99411.06;;;30.40;98.29
23899;BME280;20544;50.018;20.010;2023-08-12T09:58:03;99411.80;;;29.94;96.67
23899;BME280;20544;50.018;20.010;2023-08-12T10:01:22;99402.11;;;30.01;100.00
23899;BME280;20544;50.018;20.010;2023-08-12T10:04:41;99393.98;;;29.96;99.90
23899;BME280;20544;50.018;20.010;2023-08-12T10:08:00;99392.41;;;30.09;99.40
23899;BME280;20544;50.018;20.010;2023-08-12T10:11:17;99395.45;;;30.08;98.44
23899;BME280;20544;50.018;20.010;2023-08-12T10:14:33;99383.80;;;30.02;99.83
23899;BME280;20544;50.018;20.010;2023-08-12T10:17:51;99384.29;;;30.04;98.87
23899;BME280;20544;50.018;20.010;2023-08-12T10:21:10;99384.16;;;29.95;99.00
23899;BME280;20544;50.018;20.010;2023-08-12T10:24:28;99377.77;;;29.62;98.65
23899;BME280;20544;50.018;20.010;2023-08-12T10:27:44;99379.92;;;29.65;98.54
23899;BME280;20544;50.018;20.010;2023-08-12T10:31:01;99371.99;;;29.44;99.98
23899;BME280;20544;50.018;20.010;2023-08-12T10:34:25;99372.75;;;29.50;100.00
23899;BME280;20544;50.018;20.010;2023-08-12T10:37:41;99367.86;;;29.47;100.00
23899;BME280;20544;50.018;20.010;2023-08-12T10:41:17;99363.52;;;29.21;98.71
23899;BME280;20544;50.018;20.010;2023-08-12T10:44:48;99357.66;;;29.09;100.00
23899;BME280;20544;50.018;20.010;2023-08-12T10:48:18;99348.14;;;29.07;100.00
23899;BME280;20544;50.018;20.010;2023-08-12T10:51:46;99348.14;;;29.07;100.00
23899;BME280;20544;50.018;20.010;2023-08-12T10:55:21;99335.72;;;28.95;100.00
23899;BME280;20544;50.018;20.010;2023-08-12T10:58:44;99345.22;;;28.73;100.00
23899;BME280;20544;50.018;20.010;2023-08-12T11:02:11;99331.42;;;28.60;100.00
23899;BME280;20544;50.018;20.010;2023-08-12T11:05:37;99331.95;;;28.62;100.00
23899;BME280;20544;50.018;20.010;2023-08-12T11:08:55;99320.56;;;28.54;100.00
23899;BME280;20544;50.018;20.010;2023-08-12T11:12:12;99323.52;;;28.34;100.00
23899;BME280;20544;50.018;20.010;2023-08-12T11:15:34;99318.38;;;28.27;100.00
23899;BME280;20544;50.018;20.010;2023-08-12T11:18:55;99316.74;;;28.26;100.00
23899;BME280;20544;50.018;20.010;2023-08-12T11:22:13;99312.44;;;28.20;100.00
23899;BME280;20544;50.018;20.010;2023-08-12T11:25:32;99317.09;;;28.19;100.00
23899;BME280;20544;50.018;20.010;2023-08-12T11:28:50;99313.31;;;28.15;100.00
23899;BME280;20544;50.018;20.010;2023-08-12T11:32:07;99307.94;;;28.00;100.00
23899;BME280;20544;50.018;20.010;2023-08-12T11:35:25;99297.89;;;27.95;100.00
23899;BME280;20544;50.018;20.010;2023-08-12T11:38:42;99298.23;;;27.88;100.00
23899;BME280;20544;50.018;20.010;2023-08-12T11:41:58;99295.55;;;27.83;100.00
23899;BME280;20544;50.018;20.010;2023-08-12T11:45:18;99294.80;;;27.72;100.00
23899;BME280;20544;50.018;20.010;2023-08-12T11:48:35;99293.28;;;27.56;100.00
23899;BME280;20544;50.018;20.010;2023-08-12T11:51:52;99290.05;;;27.49;100.00
23899;BME280;20544;50.018;20.010;2023-08-12T11:55:10;99281.95;;;27.33;100.00
23899;BME280;20544;50.018;20.010;2023-08-12T11:58:27;99272.48;;;27.25;100.00
23899;BME280;20544;50.018;20.010;2023-08-12T12:01:54;99278.56;;;27.07;100.00
23899;BME280;20544;50.018;20.010;2023-08-12T12:05:13;99267.13;;;27.05;100.00
23899;BME280;20544;50.018;20.010;2023-08-12T12:08:34;99271.53;;;26.90;100.00
23899;BME280;20544;50.018;20.010;2023-08-12T12:11:53;99267.47;;;26.88;100.00
23899;BME280;20544;50.018;20.010;2023-08-12T12:15:10;99268.59;;;26.76;100.00
23899;BME280;20544;50.018;20.010;2023-08-12T12:18:29;99260.72;;;26.70;100.00
23899;BME280;20544;50.018;20.010;2023-08-12T12:21:47;99257.45;;;26.68;100.00
23899;BME280;20544;50.018;20.010;2023-08-12T12:25:10;99253.14;;;26.56;100.00
23899;BME280;20544;50.018;20.010;2023-08-12T12:28:28;99243.91;;;26.52;100.00
23899;BME280;20544;50.018;20.010;2023-08-12T12:31:46;99240.09;;;26.48;100.00
23899;BME280;20544;50.018;20.010;2023-08-12T12:35:07;99237.39;;;26.43;100.00
23899;BME280;20544;50.018;20.010;2023-08-12T12:38:40;99233.34;;;26.35;100.00
23899;BME280;20544;50.018;20.010;2023-08-12T12:42:07;99226.30;;;26.24;100.00
23899;BME280;20544;50.018;20.010;2023-08-12T12:45:28;99229.05;;;26.13;100.00
23899;BME280;20544;50.018;20.010;2023-08-12T12:48:48;99235.58;;;26.07;100.00
23899;BME280;20544;50.018;20.010;2023-08-12T12:52:10;99223.86;;;26.02;100.00
23899;BME280;20544;50.018;20.010;2023-08-12T12:55:29;99219.80;;;25.94;100.00
23899;BME280;20544;50.018;20.010;2023-08-12T12:58:52;99211.92;;;25.92;100.00
23899;BME280;20544;50.018;20.010;2023-08-12T13:02:13;99212.73;;;25.88;100.00
23899;BME280;20544;50.018;20.010;2023-08-12T13:05:40;99201.60;;;25.84;100.00
23899;BME280;20544;50.018;20.010;2023-08-12T13:09:01;99195.90;;;25.80;100.00
23899;BME280;20544;50.018;20.010;2023-08-12T13:12:19;99201.89;;;25.77;100.00
23899;BME280;20544;50.018;20.010;2023-08-12T13:15:36;99206.22;;;25.73;100.00
23899;BME280;20544;50.018;20.010;2023-08-12T13:18:53;99192.39;;;25.70;100.00
23899;BME280;20544;50.018;20.010;2023-08-12T13:22:10;99193.48;;;25.63;100.00
23899;BME280;20544;50.018;20.010;2023-08-12T13:25:30;99189.66;;;25.59;100.00
23899;BME280;20544;50.018;20.010;2023-08-12T13:29:01;99180.98;;;25.57;100.00
23899;BME280;20544;50.018;20.010;2023-08-12T13:32:20;99185.06;;;25.55;100.00
23899;BME280;20544;50.018;20.010;2023-08-12T13:35:37;99187.50;;;25.51;100.00
23899;BME280;20544;50.018;20.010;2023-08-12T13:38:54;99179.61;;;25.49;100.00
23899;BME280;20544;50.018;20.010;2023-08-12T13:42:12;99180.16;;;25.46;100.00
23899;BME280;20544;50.018;20.010;2023-08-12T13:45:28;99179.33;;;25.46;100.00
23899;BME280;20544;50.018;20.010;2023-08-12T13:48:45;99178.80;;;25.49;100.00
23899;BME280;20544;50.018;20.010;2023-08-12T13:52:02;99177.17;;;25.48;100.00
23899;BME280;20544;50.018;20.010;2023-08-12T13:55:19;99173.09;;;25.45;100.00
23899;BME280;20544;50.018;20.010;2023-08-12T13:58:36;99165.23;;;25.44;100.00
23899;BME280;20544;50.018;20.010;2023-08-12T14:01:53;99161.69;;;25.43;100.00
23899;BME280;20544;50.018;20.010;2023-08-12T14:05:10;99157.61;;;25.41;100.00
23899;BME280;20544;50.018;20.010;2023-08-12T14:08:28;99157.89;;;25.39;100.00
23899;BME280;20544;50.018;20.010;2023-08-12T14:11:45;99154.07;;;25.35;100.00
23899;BME280;20544;50.018;20.010;2023-08-12T14:15:02;99151.88;;;25.32;100.00
23899;BME280;20544;50.018;20.010;2023-08-12T14:18:20;99147.01;;;25.29;100.00
23899;BME280;20544;50.018;20.010;2023-08-12T14:21:37;99149.45;;;25.25;100.00
23899;BME280;20544;50.018;20.010;2023-08-12T14:24:54;99149.97;;;25.22;100.00
23899;BME280;20544;50.018;20.010;2023-08-12T14:28:10;99152.68;;;25.17;100.00
23899;BME280;20544;50.018;20.010;2023-08-12T14:31:26;99147.81;;;25.14;100.00
23899;BME280;20544;50.018;20.010;2023-08-12T14:34:43;99141.03;;;25.11;100.00
23899;BME280;20544;50.018;20.010;2023-08-12T14:38:00;99142.91;;;25.11;100.00
23899;BME280;20544;50.018;20.010;2023-08-12T14:41:17;99132.05;;;25.11;100.00
23899;BME280;20544;50.018;20.010;2023-08-12T14:44:36;99136.67;;;25.10;100.00
23899;BME280;20544;50.018;20.010;2023-08-12T14:47:55;99125.55;;;25.07;100.00
23899;BME280;20544;50.018;20.010;2023-08-12T14:51:12;99120.40;;;25.05;100.00
23899;BME280;20544;50.018;20.010;2023-08-12T14:54:30;99119.04;;;25.02;100.00
23899;BME280;20544;50.018;20.010;2023-08-12T14:57:50;99119.04;;;25.02;100.00
23899;BME280;20544;50.018;20.010;2023-08-12T15:01:10;99110.91;;;25.02;100.00
23899;BME280;20544;50.018;20.010;2023-08-12T15:04:27;99116.05;;;24.99;100.00
23899;BME280;20544;50.018;20.010;2023-08-12T15:07:44;99110.06;;;24.97;100.00
23899;BME280;20544;50.018;20.010;2023-08-12T15:11:03;99098.66;;;24.95;100.00
23899;BME280;20544;50.018;20.010;2023-08-12T15:14:20;99102.73;;;24.92;100.00
23899;BME280;20544;50.018;20.010;2023-08-12T15:17:40;99102.48;;;24.94;100.00
23899;BME280;20544;50.018;20.010;2023-08-12T15:20:59;99097.30;;;24.92;100.00
23899;BME280;20544;50.018;20.010;2023-08-12T15:24:16;99091.88;;;24.87;100.00
23899;BME280;20544;50.018;20.010;2023-08-12T15:27:33;99090.52;;;24.84;100.00
23899;BME280;20544;50.018;20.010;2023-08-12T15:30:52;99087.80;;;24.84;100.00
23899;BME280;20544;50.018;20.010;2023-08-12T15:34:06;99085.65;;;24.86;100.00
23899;BME280;20544;50.018;20.010;2023-08-12T15:37:23;99082.14;;;24.91;100.00
23899;BME280;20544;50.018;20.010;2023-08-12T15:40:40;99073.45;;;24.89;100.00
23899;BME280;20544;50.018;20.010;2023-08-12T15:44:01;99079.14;;;24.87;100.00
23899;BME280;20544;50.018;20.010;2023-08-12T15:47:23;99079.67;;;24.84;100.00
23899;BME280;20544;50.018;20.010;2023-08-12T15:50:46;99072.61;;;24.78;100.00
23899;BME280;20544;50.018;20.010;2023-08-12T15:54:03;99071.25;;;24.76;100.00
23899;BME280;20544;50.018;20.010;2023-08-12T15:57:23;99059.88;;;24.74;100.00
23899;BME280;20544;50.018;20.010;2023-08-12T16:00:43;99062.84;;;24.72;100.00
23899;BME280;20544;50.018;20.010;2023-08-12T16:04:03;99059.56;;;24.65;100.00
23899;BME280;20544;50.018;20.010;2023-08-12T16:07:23;99061.44;;;24.59;100.00
23899;BME280;20544;50.018;20.010;2023-08-12T16:10:44;99057.64;;;24.55;100.00
23899;BME280;20544;50.018;20.010;2023-08-12T16:14:02;99052.45;;;24.48;100.00
23899;BME280;20544;50.018;20.010;2023-08-12T16:17:22;99053.80;;;24.46;100.00
23899;BME280;20544;50.018;20.010;2023-08-12T16:20:39;99050.28;;;24.40;100.00
23899;BME280;20544;50.018;20.010;2023-08-12T16:23:57;99047.80;;;24.33;100.00
23899;BME280;20544;50.018;20.010;2023-08-12T16:27:13;99053.77;;;24.30;100.00
23899;BME280;20544;50.018;20.010;2023-08-12T16:30:30;99053.77;;;24.25;100.00
23899;BME280;20544;50.018;20.010;2023-08-12T16:33:47;99052.91;;;24.19;100.00
23899;BME280;20544;50.018;20.010;2023-08-12T16:37:07;99049.41;;;24.19;100.00
23899;BME280;20544;50.018;20.010;2023-08-12T16:40:30;99042.63;;;24.16;100.00
23899;BME280;20544;50.018;20.010;2023-08-12T16:43:48;99053.97;;;24.13;100.00
23899;BME280;20544;50.018;20.010;2023-08-12T16:47:07;99055.86;;;24.08;100.00
23899;BME280;20544;50.018;20.010;2023-08-12T16:50:29;99044.98;;;24.02;100.00
23899;BME280;20544;50.018;20.010;2023-08-12T16:53:49;99047.94;;;23.96;100.00
23899;BME280;20544;50.018;20.010;2023-08-12T16:57:10;99055.80;;;23.97;100.00
23899;BME280;20544;50.018;20.010;2023-08-12T17:00:34;99056.87;;;23.96;100.00
23899;BME280;20544;50.018;20.010;2023-08-12T17:03:54;99052.30;;;24.02;100.00
23899;BME280;20544;50.018;20.010;2023-08-12T17:07:15;99053.06;;;23.92;100.00
23899;BME280;20544;50.018;20.010;2023-08-12T17:10:38;99051.09;;;23.82;100.00